createdAt,value
2018-08-18T00:02:38.843Z,71.10
2018-08-18T00:06:42.158Z,68.70
2018-08-18T00:10:49.923Z,69.20
2018-08-18T00:14:53.262Z,71.30
2018-08-18T00:18:58.900Z,69.10
2018-08-18T00:23:03.664Z,69.90
2018-08-18T00:27:07.024Z,69.70
2018-08-18T00:31:10.463Z,69.30
2018-08-18T00:35:17.373Z,72.50
2018-08-18T00:39:20.671Z,72.50
2018-08-18T00:43:24.019Z,69.50
2018-08-18T00:47:27.398Z,69.60
2018-08-18T00:51:36.181Z,69.20
2018-08-18T00:55:39.560Z,69.00
2018-08-18T00:59:42.887Z,70.60
2018-08-18T01:03:51.745Z,70.40
2018-08-18T01:07:55.239Z,69.70
2018-08-18T01:11:58.648Z,69.10
2018-08-18T01:16:01.940Z,72.70
2018-08-18T01:20:06.668Z,69.60
2018-08-18T01:24:10.031Z,70.30
2018-08-18T01:28:13.384Z,71.50
2018-08-18T01:32:16.740Z,73.20
2018-08-18T01:36:20.531Z,71.50
2018-08-18T01:40:23.863Z,73.10
2018-08-18T01:44:27.184Z,70.40
2018-08-18T01:48:30.876Z,72.80
2018-08-18T01:52:36.284Z,70.10
2018-08-18T01:56:39.607Z,71.70
2018-08-18T02:00:42.932Z,71.90
2018-08-18T02:04:46.884Z,70.10
2018-08-18T02:08:59.138Z,73.10
2018-08-18T02:13:04.034Z,71.80
2018-08-18T02:17:19.899Z,71.20
2018-08-18T02:21:30.899Z,71.00
2018-08-18T02:25:34.952Z,70.00
2018-08-18T02:29:38.285Z,69.90
2018-08-18T02:33:41.633Z,72.30
2018-08-18T02:37:44.969Z,70.50
2018-08-18T02:41:58.235Z,69.20
2018-08-18T02:46:15.764Z,73.60
2018-08-18T02:50:19.091Z,74.10
2018-08-18T02:54:22.464Z,74.50
2018-08-18T02:58:25.803Z,72.00
2018-08-18T03:02:29.155Z,73.80
2018-08-18T03:06:32.487Z,70.90
2018-08-18T03:10:35.903Z,79.70
2018-08-18T03:14:40.701Z,72.80
2018-08-18T03:18:53.421Z,72.70
2018-08-18T03:22:56.747Z,72.00
2018-08-18T03:27:00.271Z,70.30
2018-08-18T03:31:03.814Z,70.20
2018-08-18T03:35:07.176Z,70.60
2018-08-18T03:39:21.430Z,71.90
2018-08-18T03:43:28.320Z,77.10
2018-08-18T03:47:31.680Z,72.00
2018-08-18T03:51:40.312Z,71.30
2018-08-18T03:55:47.417Z,71.10
2018-08-18T03:59:50.748Z,69.50
2018-08-18T04:03:54.274Z,71.60
2018-08-18T04:07:58.005Z,72.00
2018-08-18T04:12:03.323Z,72.90
2018-08-18T04:16:06.928Z,70.90
2018-08-18T04:20:10.269Z,72.50
2018-08-18T04:24:14.006Z,71.10
2018-08-18T04:28:17.354Z,72.60
2018-08-18T04:32:20.696Z,71.10
2018-08-18T04:36:24.049Z,73.40
2018-08-18T04:40:27.579Z,72.50
2018-08-18T04:44:31.211Z,74.20
2018-08-18T04:48:34.555Z,72.20
2018-08-18T04:52:37.904Z,71.80
2018-08-18T04:56:41.620Z,73.00
2018-08-18T05:00:45.226Z,70.80
2018-08-18T05:04:48.584Z,72.50
2018-08-18T05:08:52.244Z,74.80
2018-08-18T05:12:55.801Z,74.80
2018-08-18T05:16:59.154Z,72.30
2018-08-18T05:21:02.511Z,72.30
2018-08-18T05:25:05.897Z,71.60
2018-08-18T05:29:09.253Z,76.30
2018-08-18T05:33:12.596Z,74.10
2018-08-18T05:37:15.961Z,71.00
2018-08-18T05:41:19.311Z,72.20
2018-08-18T05:45:27.226Z,72.00
2018-08-18T05:49:30.709Z,70.90
2018-08-18T05:53:34.973Z,70.80
2018-08-18T05:57:38.343Z,71.40
2018-08-18T06:01:42.129Z,70.70
2018-08-18T06:05:45.706Z,71.20
2018-08-18T06:09:48.948Z,71.50
2018-08-18T06:13:52.275Z,71.90
2018-08-18T06:17:55.624Z,70.20
2018-08-18T06:21:58.952Z,70.60
2018-08-18T06:26:03.108Z,71.90
2018-08-18T06:30:06.886Z,71.40
2018-08-18T06:34:10.346Z,92.60
2018-08-18T06:38:14.120Z,73.20
2018-08-18T06:42:25.058Z,72.80
2018-08-18T06:46:28.534Z,74.90
2018-08-18T06:50:37.245Z,74.60
2018-08-18T06:54:40.660Z,72.60
2018-08-18T06:58:44.031Z,72.70
2018-08-18T07:02:47.514Z,73.90
2018-08-18T07:06:50.827Z,74.90
2018-08-18T07:10:54.175Z,74.10
2018-08-18T07:15:07.676Z,77.40
2018-08-18T07:19:11.004Z,73.90
2018-08-18T07:23:14.371Z,72.30
2018-08-18T07:27:17.704Z,75.80
2018-08-18T07:31:21.164Z,76.90
2018-08-18T07:35:24.516Z,74.30
2018-08-18T07:39:28.452Z,72.70
2018-08-18T07:43:34.057Z,75.90
2018-08-18T07:47:37.453Z,73.80
2018-08-18T07:51:40.815Z,71.80
2018-08-18T08:48:27.180Z,70.70
2018-08-18T08:52:38.614Z,70.90
2018-08-18T08:56:45.818Z,71.00
2018-08-18T09:00:49.170Z,70.00
2018-08-18T09:04:52.532Z,69.00
2018-08-18T09:08:58.126Z,68.70
2018-08-18T09:13:01.450Z,68.80
2018-08-18T09:17:04.796Z,69.20
2018-08-18T09:21:08.141Z,67.40
2018-08-18T09:25:15.848Z,63.00
2018-08-18T09:29:19.155Z,65.90
2018-08-18T09:33:22.499Z,62.20
2018-08-18T09:37:25.828Z,63.20
2018-08-18T09:41:29.191Z,66.40
2018-08-18T09:45:34.513Z,65.00
2018-08-18T09:49:37.947Z,61.80
2018-08-18T09:53:41.315Z,64.80
2018-08-18T09:57:44.685Z,63.90
2018-08-18T10:01:48.049Z,63.70
2018-08-18T10:05:51.448Z,60.80
2018-08-18T10:09:54.780Z,62.00
2018-08-18T10:13:58.261Z,60.20
2018-08-18T10:18:01.689Z,62.30
2018-08-18T10:22:09.397Z,59.10
2018-08-18T10:26:12.948Z,62.20
2018-08-18T10:30:16.279Z,61.20
2018-08-18T10:34:21.741Z,60.00
2018-08-18T10:38:25.111Z,59.90
2018-08-18T10:42:28.504Z,61.40
2018-08-18T10:46:31.876Z,58.00
2018-08-18T10:51:44.621Z,60.90
2018-08-18T10:55:47.959Z,57.90
2018-08-18T10:59:52.428Z,60.00
2018-08-18T11:03:55.871Z,60.60
2018-08-18T11:08:04.326Z,58.60
2018-08-18T11:12:07.695Z,58.10
2018-08-18T11:16:11.677Z,53.80
2018-08-18T11:20:18.857Z,54.50
2018-08-18T11:24:22.231Z,56.00
2018-08-18T11:28:25.710Z,55.90
2018-08-18T11:32:29.028Z,57.50
2018-08-18T11:36:32.348Z,56.80
2018-08-18T11:40:35.835Z,54.80
2018-08-18T11:44:39.203Z,53.50
2018-08-18T11:48:42.555Z,56.20
2018-08-18T11:52:50.089Z,53.00
2018-08-18T11:56:54.015Z,52.30
2018-08-18T12:00:59.801Z,56.20
2018-08-18T12:05:03.172Z,50.80
2018-08-18T12:09:06.684Z,50.90
2018-08-18T12:13:10.091Z,53.40
2018-08-18T12:17:13.414Z,54.80
2018-08-18T12:21:17.422Z,53.00
2018-08-18T12:25:20.788Z,51.50
2018-08-18T12:29:24.172Z,51.60
2018-08-18T12:33:27.945Z,52.90
2018-08-18T12:37:31.362Z,52.40
2018-08-18T12:41:34.715Z,54.40
2018-08-18T12:45:41.101Z,53.40
2018-08-18T12:49:44.556Z,53.00
2018-08-18T12:53:49.464Z,52.50
2018-08-18T12:57:52.784Z,49.60
2018-08-18T13:01:56.131Z,49.40
2018-08-18T13:05:59.513Z,51.90
2018-08-18T13:10:36.488Z,53.10
2018-08-18T13:14:39.832Z,51.20
2018-08-18T13:18:43.231Z,52.50
2018-08-18T13:22:46.636Z,51.00
2018-08-18T13:26:50.038Z,52.20
2018-08-18T13:30:53.396Z,52.40
2018-08-18T13:34:56.724Z,50.00
2018-08-18T13:39:01.495Z,49.10
2018-08-18T13:43:04.860Z,49.30
2018-08-18T13:47:08.249Z,50.70
2018-08-18T13:51:11.562Z,48.70
2018-08-18T13:55:14.895Z,50.00
2018-08-18T13:59:44.804Z,51.00
2018-08-18T14:03:48.176Z,47.50
2018-08-18T14:07:58.298Z,48.90
2018-08-18T14:12:06.914Z,47.20
2018-08-18T14:16:10.250Z,51.50
2018-08-18T14:20:13.588Z,49.70
2018-08-18T14:24:20.597Z,46.10
2018-08-18T14:28:24.041Z,47.30
2018-08-18T14:32:29.390Z,51.70
2018-08-18T14:36:32.793Z,51.30
2018-08-18T14:40:36.276Z,45.50
2018-08-18T14:44:43.330Z,49.30
2018-08-18T14:48:46.610Z,49.10
2018-08-18T14:52:49.948Z,48.80
2018-08-18T14:56:53.324Z,46.60
2018-08-18T15:01:01.942Z,50.10
2018-08-18T15:05:05.431Z,48.20
2018-08-18T15:09:08.807Z,46.40
2018-08-18T15:13:12.682Z,46.40
2018-08-18T15:17:16.127Z,47.50
2018-08-18T15:21:19.549Z,48.30
2018-08-18T15:25:22.865Z,50.40
2018-08-18T15:29:26.339Z,45.80
2018-08-18T15:33:30.423Z,47.10
2018-08-18T15:37:33.776Z,47.50
2018-08-18T15:41:37.316Z,48.70
2018-08-18T15:46:01.168Z,48.00
2018-08-18T15:50:04.841Z,48.70
2018-08-18T15:54:13.648Z,47.00
2018-08-18T15:58:17.035Z,49.30
2018-08-18T16:02:20.391Z,47.20
2018-08-18T16:06:23.883Z,48.40
2018-08-18T16:10:27.745Z,47.40
2018-08-18T16:14:31.319Z,49.60
2018-08-18T16:18:34.781Z,47.30
2018-08-18T16:22:38.172Z,47.20
2018-08-18T16:26:41.512Z,48.00
2018-08-18T16:30:44.846Z,48.20
2018-08-18T16:34:50.202Z,49.40
2018-08-18T16:38:53.578Z,49.30
2018-08-18T16:42:56.912Z,49.00
2018-08-18T16:47:03.154Z,46.50
2018-08-18T16:51:06.505Z,49.80
2018-08-18T16:55:09.831Z,49.50
2018-08-18T16:59:13.184Z,47.80
2018-08-18T17:03:16.574Z,49.50
2018-08-18T17:07:27.480Z,49.10
2018-08-18T17:11:30.806Z,49.90
2018-08-18T17:15:34.124Z,49.40
2018-08-18T17:19:38.391Z,49.50
2018-08-18T17:23:42.021Z,49.80
2018-08-18T17:27:45.329Z,50.20
2018-08-18T17:31:48.698Z,49.30
2018-08-18T17:35:52.062Z,50.20
2018-08-18T17:39:55.437Z,49.30
2018-08-18T17:43:58.760Z,49.90
2018-08-18T17:48:02.652Z,50.80
2018-08-18T17:52:08.183Z,50.30
2018-08-18T17:56:11.866Z,50.30
2018-08-18T18:00:22.678Z,50.80
2018-08-18T18:04:27.535Z,50.80
2018-08-18T18:08:31.002Z,50.70
2018-08-18T18:12:35.770Z,51.20
2018-08-18T18:16:40.733Z,50.80
2018-08-18T18:20:45.920Z,50.90
2018-08-18T18:24:49.436Z,51.00
2018-08-18T18:28:52.827Z,52.20
2018-08-18T18:32:57.073Z,51.50
2018-08-18T18:37:00.403Z,51.60
2018-08-18T18:41:03.748Z,51.60
2018-08-18T18:45:10.296Z,51.80
2018-08-18T18:49:25.636Z,52.00
2018-08-18T18:53:45.878Z,52.00
2018-08-18T18:58:05.914Z,52.20
2018-08-18T19:02:09.395Z,52.00
2018-08-18T19:06:12.998Z,52.30
2018-08-18T19:10:16.326Z,52.40
2018-08-18T19:14:19.892Z,52.50
2018-08-18T19:18:23.292Z,52.50
2018-08-18T19:22:26.628Z,52.70
2018-08-18T19:26:44.449Z,52.90
2018-08-18T19:30:47.823Z,53.00
2018-08-18T19:38:54.392Z,52.90
2018-08-18T19:42:57.750Z,53.60
2018-08-18T19:47:01.104Z,53.80
2018-08-18T19:51:05.020Z,54.00
2018-08-18T19:55:10.589Z,54.20
2018-08-18T19:59:13.920Z,54.30
2018-08-18T20:03:18.061Z,54.60
2018-08-18T20:07:21.384Z,55.10
2018-08-18T20:11:24.748Z,55.60
2018-08-18T20:15:28.107Z,55.50
2018-08-18T20:19:31.434Z,55.40
2018-08-18T20:23:34.772Z,56.00
2018-08-18T20:27:38.099Z,55.70
2018-08-18T20:31:52.178Z,55.70
2018-08-18T20:35:55.589Z,56.80
2018-08-18T20:39:59.038Z,56.10
2018-08-18T20:44:02.583Z,56.10
2018-08-18T20:48:06.568Z,56.00
2018-08-18T20:52:09.988Z,55.70
2018-08-18T20:56:13.385Z,56.40
2018-08-18T21:00:17.039Z,55.80
2018-08-18T21:04:20.379Z,57.20
2018-08-18T21:08:23.805Z,56.80
2018-08-18T21:12:33.056Z,56.70
2018-08-18T21:16:36.714Z,56.40
2018-08-18T21:20:40.168Z,59.00
2018-08-18T21:24:43.538Z,56.90
2018-08-18T21:28:47.294Z,57.30
2018-08-18T21:32:52.627Z,58.50
2018-08-18T21:36:57.749Z,57.70
2018-08-18T21:41:03.004Z,58.00
2018-08-18T21:45:11.452Z,57.70
2018-08-18T21:49:15.341Z,58.30
2018-08-18T21:53:19.836Z,57.10
2018-08-18T21:57:24.838Z,58.20
2018-08-18T22:01:30.461Z,57.90
2018-08-18T22:05:34.405Z,58.40
2018-08-18T22:09:37.884Z,57.60
2018-08-18T22:13:47.011Z,58.70
2018-08-18T22:17:53.504Z,58.40
2018-08-18T22:21:57.247Z,58.00
2018-08-18T22:26:03.619Z,58.90
2018-08-18T22:30:11.735Z,58.20
2018-08-18T22:34:15.079Z,59.30
2018-08-18T22:38:18.464Z,58.50
2018-08-18T22:42:22.142Z,59.60
2018-08-18T22:46:25.520Z,58.90
2018-08-18T22:50:28.959Z,59.50
2018-08-18T22:54:32.294Z,58.60
2018-08-18T22:58:35.644Z,58.70
2018-08-18T23:02:39.648Z,60.80
2018-08-18T23:06:44.058Z,59.00
2018-08-18T23:10:47.588Z,58.90
2018-08-18T23:14:50.948Z,58.40
2018-08-18T23:18:54.348Z,59.80
2018-08-18T23:23:02.579Z,59.60
2018-08-18T23:27:06.051Z,61.60
2018-08-18T23:31:09.408Z,59.80
2018-08-18T23:35:12.804Z,59.60
2018-08-18T23:39:16.177Z,58.80
2018-08-18T23:43:19.541Z,59.40
2018-08-18T23:47:22.956Z,60.60
2018-08-18T23:51:30.539Z,60.00
2018-08-18T23:55:33.920Z,59.60
2018-08-18T23:59:37.291Z,59.50
